Time;durP1;ratioP1;P1;durP2;ratioP2;P2;SDS_P1;SDS_P2;PMS_P1;PMS_P2;Temp;Humidity;BMP_temperature;BMP_pressure;BME280_temperature;BME280_humidity;BME280_pressure;Samples;Min_cycle;Max_cycle;Signal;HPM_P1;HPM_P2
2023/05/11 00:02:14;;;;;;;25.13;19.02;;;;;;;;;;5034981;28;20413;-79
2023/05/11 00:04:40;;;;;;;24.90;21.02;;;;;;;;;;5032968;28;20424;-79
2023/05/11 00:07:06;;;;;;;27.80;21.42;;;;;;;;;;5016668;28;20410;-80
2023/05/11 00:09:33;;;;;;;23.10;20.08;;;;;;;;;;5034348;28;20405;-80
2023/05/11 00:12:00;;;;;;;23.10;17.67;;;;;;;;;;5017368;28;20256;-80
2023/05/11 00:14:26;;;;;;;22.43;17.63;;;;;;;;;;5017341;28;20295;-79
2023/05/11 00:16:52;;;;;;;25.00;20.08;;;;;;;;;;5016765;28;20402;-80
2023/05/11 00:19:19;;;;;;;22.33;17.53;;;;;;;;;;5034383;28;20200;-80
2023/05/11 00:21:45;;;;;;;27.45;20.40;;;;;;;;;;5016416;28;20406;-80
2023/05/11 00:24:11;;;;;;;21.50;17.17;;;;;;;;;;5033626;28;20181;-80
2023/05/11 00:26:37;;;;;;;24.27;17.57;;;;;;;;;;5033394;28;20169;-79
2023/05/11 00:29:03;;;;;;;22.30;17.97;;;;;;;;;;5016931;28;20208;-80
2023/05/11 00:31:29;;;;;;;22.57;17.43;;;;;;;;;;5016738;28;20176;-83
2023/05/11 00:33:55;;;;;;;25.53;17.77;;;;;;;;;;5032899;28;20271;-84
2023/05/11 00:36:21;;;;;;;26.47;18.00;;;;;;;;;;5016732;28;20192;-83
2023/05/11 00:38:48;;;;;;;29.42;21.88;;;;;;;;;;5028855;28;20434;-83
2023/05/11 00:41:15;;;;;;;29.60;22.08;;;;;;;;;;5012826;28;20473;-83
2023/05/11 00:43:41;;;;;;;26.73;20.67;;;;;;;;;;5029463;28;20407;-83
2023/05/11 00:46:07;;;;;;;29.70;22.88;;;;;;;;;;5043811;28;20401;-83
2023/05/11 00:48:33;;;;;;;27.73;21.90;;;;;;;;;;5032937;28;20405;-80
2023/05/11 00:50:59;;;;;;;24.30;18.87;;;;;;;;;;5017661;28;20180;-80
2023/05/11 00:53:25;;;;;;;26.57;18.90;;;;;;;;;;5033177;28;20173;-80
2023/05/11 00:55:51;;;;;;;28.07;20.50;;;;;;;;;;5033103;28;20263;-80
2023/05/11 00:58:17;;;;;;;25.87;19.93;;;;;;;;;;5033064;28;20294;-80
2023/05/11 01:00:43;;;;;;;25.07;19.23;;;;;;;;;;5033265;28;20172;-80
2023/05/11 01:03:11;;;;;;;25.53;19.47;;;;;;;;;;5032773;28;20180;-80
2023/05/11 01:05:53;;;;;;;26.03;18.63;;;;;;;;;;5032702;28;20180;-83
2023/05/11 01:08:22;;;;;;;28.73;20.43;;;;;;;;;;5032572;28;20179;-83
2023/05/11 01:10:52;;;;;;;24.63;19.07;;;;;;;;;;5033406;28;20184;-83
2023/05/11 01:13:23;;;;;;;29.03;20.57;;;;;;;;;;5032855;28;20176;-83
2023/05/11 01:15:54;;;;;;;28.33;20.70;;;;;;;;;;5013071;28;20262;-83
2023/05/11 01:18:41;;;;;;;27.67;19.90;;;;;;;;;;5016801;28;20212;-83
2023/05/11 01:21:08;;;;;;;27.60;21.13;;;;;;;;;;5032440;28;20177;-83
2023/05/11 01:23:43;;;;;;;35.40;23.00;;;;;;;;;;5032663;28;20180;-83
2023/05/11 01:26:18;;;;;;;31.30;22.60;;;;;;;;;;5032776;28;20199;-83
2023/05/11 01:28:44;;;;;;;29.53;22.10;;;;;;;;;;5032893;28;20184;-83
2023/05/11 01:31:11;;;;;;;36.20;24.63;;;;;;;;;;5032463;28;20220;-83
2023/05/11 01:33:38;;;;;;;34.17;24.30;;;;;;;;;;5032815;28;20189;-83
2023/05/11 01:36:06;;;;;;;37.00;24.93;;;;;;;;;;5032674;28;20181;-83
2023/05/11 01:38:33;;;;;;;38.97;25.67;;;;;;;;;;5032300;28;20204;-83
2023/05/11 01:41:00;;;;;;;35.97;25.50;;;;;;;;;;5019060;28;20185;-83
2023/05/11 01:43:27;;;;;;;34.60;26.07;;;;;;;;;;5036616;28;20215;-83
2023/05/11 01:45:55;;;;;;;38.33;25.83;;;;;;;;;;5037201;28;20215;-83
2023/05/11 01:48:23;;;;;;;38.17;25.73;;;;;;;;;;5035211;28;20188;-80
2023/05/11 01:50:50;;;;;;;37.83;26.03;;;;;;;;;;5035983;28;20177;-80
2023/05/11 01:53:16;;;;;;;41.67;27.30;;;;;;;;;;5036043;28;20181;-80
2023/05/11 01:55:43;;;;;;;39.43;26.43;;;;;;;;;;5020202;28;20231;-86
2023/05/11 01:58:10;;;;;;;36.40;25.37;;;;;;;;;;5036241;28;20205;-85
2023/05/11 02:00:36;;;;;;;37.13;25.73;;;;;;;;;;5019565;28;20188;-86
2023/05/11 02:03:04;;;;;;;40.30;27.40;;;;;;;;;;5016603;28;20200;-85
2023/05/11 02:05:31;;;;;;;39.90;26.40;;;;;;;;;;5035733;28;20261;-86
2023/05/11 02:07:57;;;;;;;42.13;27.67;;;;;;;;;;5019553;28;20189;-86
2023/05/11 02:10:25;;;;;;;42.80;27.53;;;;;;;;;;5035987;28;20185;-80
2023/05/11 02:12:52;;;;;;;38.57;26.57;;;;;;;;;;5036324;28;20287;-80
2023/05/11 02:15:19;;;;;;;35.43;25.73;;;;;;;;;;5019665;28;20275;-80
2023/05/11 02:17:45;;;;;;;41.97;29.23;;;;;;;;;;5031985;28;20217;-80
2023/05/11 02:20:11;;;;;;;35.80;26.23;;;;;;;;;;5033293;28;20172;-80
2023/05/11 02:22:38;;;;;;;43.20;29.13;;;;;;;;;;5035136;28;20180;-81
2023/05/11 02:25:05;;;;;;;44.00;28.67;;;;;;;;;;5035323;28;20191;-80
2023/05/11 02:27:31;;;;;;;43.23;27.67;;;;;;;;;;5019217;28;20185;-85
2023/05/11 02:29:58;;;;;;;44.47;29.07;;;;;;;;;;5035441;28;20230;-85
2023/05/11 02:32:24;;;;;;;43.83;28.60;;;;;;;;;;5035651;28;20180;-86
2023/05/11 02:35:00;;;;;;;44.57;28.67;;;;;;;;;;5035936;28;20180;-85
2023/05/11 02:37:27;;;;;;;47.80;28.97;;;;;;;;;;5036021;28;20200;-86
2023/05/11 02:39:57;;;;;;;44.97;28.63;;;;;;;;;;5019320;28;20184;-86
2023/05/11 02:42:24;;;;;;;43.33;29.30;;;;;;;;;;5035259;28;20188;-86
2023/05/11 02:44:54;;;;;;;45.47;28.40;;;;;;;;;;5029320;28;20271;-83
2023/05/11 02:47:22;;;;;;;43.80;27.83;;;;;;;;;;5032084;28;20177;-84
2023/05/11 02:49:52;;;;;;;41.30;28.40;;;;;;;;;;5033279;28;20189;-83
2023/05/11 02:52:20;;;;;;;39.80;27.40;;;;;;;;;;5035355;28;20204;-83
2023/05/11 02:54:47;;;;;;;45.20;29.40;;;;;;;;;;5036086;28;20173;-83
2023/05/11 02:57:13;;;;;;;42.33;27.50;;;;;;;;;;5035235;28;20208;-83
2023/05/11 02:59:39;;;;;;;46.10;28.10;;;;;;;;;;5034838;28;20207;-83
2023/05/11 03:02:05;;;;;;;42.13;27.73;;;;;;;;;;5019074;28;20244;-83
2023/05/11 03:04:31;;;;;;;41.50;27.33;;;;;;;;;;5034932;28;20226;-83
2023/05/11 03:06:57;;;;;;;41.13;27.83;;;;;;;;;;5035225;28;20177;-84
2023/05/11 03:09:23;;;;;;;43.73;28.97;;;;;;;;;;5019079;28;20284;-83
2023/05/11 03:11:50;;;;;;;42.77;27.63;;;;;;;;;;5034675;28;20192;-83
2023/05/11 03:14:16;;;;;;;38.87;26.70;;;;;;;;;;5034661;28;20295;-83
2023/05/11 03:16:43;;;;;;;42.83;26.73;;;;;;;;;;5018341;28;20188;-83
2023/05/11 03:19:09;;;;;;;43.63;27.17;;;;;;;;;;5034789;28;20220;-81
2023/05/11 03:21:36;;;;;;;37.57;25.77;;;;;;;;;;5034580;28;20268;-80
2023/05/11 03:24:04;;;;;;;37.43;25.20;;;;;;;;;;5034190;28;20284;-80
2023/05/11 03:26:32;;;;;;;38.47;25.57;;;;;;;;;;5034394;28;20184;-81
2023/05/11 03:28:59;;;;;;;39.23;26.83;;;;;;;;;;5034182;28;20268;-80
2023/05/11 03:31:25;;;;;;;39.60;26.57;;;;;;;;;;5034726;28;20227;-81
2023/05/11 03:33:51;;;;;;;38.87;26.30;;;;;;;;;;5018677;28;20184;-83
2023/05/11 03:36:17;;;;;;;38.30;25.07;;;;;;;;;;5034291;28;20180;-84
2023/05/11 03:38:46;;;;;;;37.73;25.77;;;;;;;;;;5017860;28;20223;-83
2023/05/11 03:41:15;;;;;;;34.10;24.93;;;;;;;;;;5034887;28;20168;-83
2023/05/11 03:43:42;;;;;;;36.90;24.93;;;;;;;;;;5033552;28;20185;-84
2023/05/11 03:46:09;;;;;;;33.50;24.80;;;;;;;;;;5017783;28;20180;-84
2023/05/11 03:48:35;;;;;;;35.07;25.00;;;;;;;;;;5033322;28;20203;-83
2023/05/11 03:51:03;;;;;;;33.83;25.10;;;;;;;;;;5014260;28;20224;-80
2023/05/11 03:53:30;;;;;;;38.90;26.13;;;;;;;;;;5030616;28;20185;-81
2023/05/11 03:55:56;;;;;;;34.33;23.67;;;;;;;;;;5015340;28;20173;-80
2023/05/11 03:58:23;;;;;;;33.70;24.10;;;;;;;;;;5014461;28;20257;-85
2023/05/11 04:00:49;;;;;;;35.43;23.40;;;;;;;;;;5043051;28;20238;-87
2023/05/11 04:03:15;;;;;;;29.17;21.90;;;;;;;;;;5033050;28;20193;-86
2023/05/11 04:05:41;;;;;;;30.63;22.20;;;;;;;;;;5033819;28;20176;-87
2023/05/11 04:08:07;;;;;;;29.90;23.10;;;;;;;;;;5033925;28;20238;-86
2023/05/11 04:10:33;;;;;;;37.43;25.10;;;;;;;;;;5033717;28;20187;-86
2023/05/11 04:12:59;;;;;;;35.57;24.73;;;;;;;;;;5017419;28;20204;-86
2023/05/11 04:15:25;;;;;;;34.83;24.70;;;;;;;;;;5033572;28;20216;-85
2023/05/11 04:17:52;;;;;;;36.27;24.60;;;;;;;;;;5017238;28;20213;-86
2023/05/11 04:20:18;;;;;;;34.87;23.90;;;;;;;;;;5033554;28;20220;-86
2023/05/11 04:22:44;;;;;;;36.73;24.90;;;;;;;;;;5017428;28;20223;-87
2023/05/11 04:25:10;;;;;;;35.17;24.10;;;;;;;;;;5017130;28;20181;-86
2023/05/11 04:27:36;;;;;;;32.93;24.63;;;;;;;;;;5017222;28;20284;-87
2023/05/11 04:30:02;;;;;;;39.03;24.73;;;;;;;;;;5013627;28;20196;-86
2023/05/11 04:32:29;;;;;;;34.83;24.60;;;;;;;;;;5017149;28;20239;-85
2023/05/11 04:34:55;;;;;;;36.17;24.97;;;;;;;;;;5033366;28;20196;-85
2023/05/11 04:37:24;;;;;;;35.03;25.03;;;;;;;;;;5016963;28;20275;-85
2023/05/11 04:39:50;;;;;;;34.73;24.47;;;;;;;;;;5016830;28;20189;-87
2023/05/11 04:42:16;;;;;;;36.73;23.87;;;;;;;;;;5032982;28;20180;-81
2023/05/11 04:44:42;;;;;;;36.47;25.90;;;;;;;;;;5017006;28;20220;-80
2023/05/11 04:47:08;;;;;;;32.60;24.33;;;;;;;;;;5033512;28;20211;-80
2023/05/11 04:49:34;;;;;;;35.77;24.07;;;;;;;;;;5016776;28;20176;-80
2023/05/11 04:52:00;;;;;;;35.13;25.30;;;;;;;;;;5015306;28;20186;-81
2023/05/11 04:54:26;;;;;;;34.77;25.43;;;;;;;;;;5015861;28;20295;-82
2023/05/11 04:56:52;;;;;;;34.20;25.30;;;;;;;;;;5033076;28;20176;-81
2023/05/11 04:59:18;;;;;;;34.97;25.13;;;;;;;;;;5030430;28;20292;-85
2023/05/11 05:01:44;;;;;;;37.00;24.30;;;;;;;;;;5031982;28;20185;-86
2023/05/11 05:04:10;;;;;;;33.53;24.53;;;;;;;;;;5015778;28;20247;-86
2023/05/11 05:06:37;;;;;;;31.50;23.33;;;;;;;;;;5016615;28;20226;-86
2023/05/11 05:09:03;;;;;;;32.20;23.03;;;;;;;;;;5016586;28;20238;-85
2023/05/11 05:11:29;;;;;;;32.17;23.23;;;;;;;;;;5016515;28;20180;-87
2023/05/11 05:13:55;;;;;;;30.90;22.07;;;;;;;;;;5025459;28;20210;-83
2023/05/11 05:16:21;;;;;;;29.70;22.07;;;;;;;;;;5020362;28;20220;-83
2023/05/11 05:18:47;;;;;;;29.90;22.60;;;;;;;;;;5037020;28;20236;-83
2023/05/11 05:21:13;;;;;;;28.20;21.47;;;;;;;;;;5020544;28;20239;-83
2023/05/11 05:23:39;;;;;;;30.60;21.73;;;;;;;;;;5037011;28;20173;-83
2023/05/11 05:26:05;;;;;;;31.80;21.23;;;;;;;;;;5018537;28;20272;-83
2023/05/11 05:28:31;;;;;;;32.67;22.20;;;;;;;;;;5035603;28;20261;-83
2023/05/11 05:30:57;;;;;;;35.83;22.03;;;;;;;;;;5036702;28;20191;-85
2023/05/11 05:33:23;;;;;;;28.50;20.80;;;;;;;;;;5020362;28;20330;-85
2023/05/11 05:35:49;;;;;;;30.80;21.57;;;;;;;;;;5036958;28;20192;-85
2023/05/11 05:38:15;;;;;;;28.87;21.10;;;;;;;;;;5020004;28;20219;-85
2023/05/11 05:40:41;;;;;;;27.43;19.20;;;;;;;;;;5018904;28;20188;-86
2023/05/11 05:43:07;;;;;;;29.20;19.93;;;;;;;;;;5019733;28;20184;-85
2023/05/11 05:45:33;;;;;;;33.10;21.63;;;;;;;;;;5019520;28;20242;-85
2023/05/11 05:48:00;;;;;;;28.00;20.27;;;;;;;;;;5019445;28;20275;-83
2023/05/11 05:50:26;;;;;;;23.70;18.07;;;;;;;;;;5036223;28;20181;-83
2023/05/11 05:52:52;;;;;;;19.73;15.53;;;;;;;;;;5019920;28;20211;-83
2023/05/11 05:55:18;;;;;;;23.50;16.93;;;;;;;;;;5019894;28;20247;-82
2023/05/11 05:57:44;;;;;;;23.13;16.47;;;;;;;;;;5036806;28;20295;-83
2023/05/11 06:00:11;;;;;;;17.67;13.20;;;;;;;;;;5035958;28;20165;-83
2023/05/11 06:02:37;;;;;;;20.60;13.90;;;;;;;;;;5035937;28;20207;-82
2023/05/11 06:05:03;;;;;;;14.27;12.13;;;;;;;;;;5036330;28;20176;-82
2023/05/11 06:07:29;;;;;;;18.13;13.00;;;;;;;;;;5034011;28;20205;-82
2023/05/11 06:09:55;;;;;;;16.80;13.17;;;;;;;;;;5016692;28;20217;-83
2023/05/11 06:12:21;;;;;;;16.00;12.37;;;;;;;;;;5050943;28;20208;-82
2023/05/11 06:14:47;;;;;;;16.90;11.83;;;;;;;;;;5034730;28;20293;-82
2023/05/11 06:17:13;;;;;;;15.50;12.30;;;;;;;;;;5015850;28;20185;-83
2023/05/11 06:19:39;;;;;;;14.73;13.18;;;;;;;;;;5015405;28;20438;-83
2023/05/11 06:22:05;;;;;;;14.97;12.40;;;;;;;;;;5032281;28;20205;-82
2023/05/11 06:24:31;;;;;;;17.97;14.07;;;;;;;;;;5018952;28;20195;-83
2023/05/11 06:26:57;;;;;;;17.10;13.93;;;;;;;;;;5034992;28;20189;-82
2023/05/11 06:29:23;;;;;;;17.27;14.13;;;;;;;;;;5019021;28;20188;-83
2023/05/11 06:31:51;;;;;;;19.20;14.97;;;;;;;;;;5034962;28;20250;-82
2023/05/11 06:34:18;;;;;;;18.50;14.17;;;;;;;;;;5019303;28;20200;-82
2023/05/11 06:36:44;;;;;;;18.23;15.33;;;;;;;;;;5035053;28;20180;-83
2023/05/11 06:39:11;;;;;;;16.13;14.43;;;;;;;;;;5033885;28;20215;-83
2023/05/11 06:41:37;;;;;;;16.87;14.80;;;;;;;;;;5018384;28;20185;-83
2023/05/11 06:44:04;;;;;;;18.60;15.07;;;;;;;;;;5018533;28;20180;-84
2023/05/11 06:46:30;;;;;;;15.90;14.30;;;;;;;;;;5018665;28;20184;-83
2023/05/11 06:48:56;;;;;;;15.90;14.07;;;;;;;;;;5035086;28;20497;-83
2023/05/11 06:51:22;;;;;;;16.00;12.83;;;;;;;;;;5036160;28;20181;-83
2023/05/11 06:53:49;;;;;;;14.00;12.13;;;;;;;;;;5034811;28;20203;-83
2023/05/11 06:56:15;;;;;;;15.10;13.50;;;;;;;;;;5035205;28;20271;-83
2023/05/11 06:58:42;;;;;;;14.30;12.80;;;;;;;;;;5035183;28;20220;-83
2023/05/11 07:01:08;;;;;;;14.90;13.30;;;;;;;;;;5035725;28;20181;-83
2023/05/11 07:03:34;;;;;;;16.03;12.90;;;;;;;;;;5034667;28;20176;-83
2023/05/11 07:06:00;;;;;;;13.43;12.03;;;;;;;;;;5035037;28;20180;-83
2023/05/11 07:08:26;;;;;;;14.37;12.43;;;;;;;;;;5034293;28;20187;-83
2023/05/11 07:10:53;;;;;;;14.53;12.73;;;;;;;;;;5018030;28;20285;-80
2023/05/11 07:13:19;;;;;;;13.20;11.80;;;;;;;;;;5018585;28;20189;-80
2023/05/11 07:15:45;;;;;;;14.23;11.40;;;;;;;;;;5033949;28;20286;-80
2023/05/11 07:18:11;;;;;;;12.77;11.10;;;;;;;;;;5034588;28;20266;-80
2023/05/11 07:20:38;;;;;;;12.93;11.50;;;;;;;;;;5033610;28;20180;-79
2023/05/11 07:23:04;;;;;;;14.07;11.87;;;;;;;;;;5050194;28;20187;-80
2023/05/11 07:25:31;;;;;;;15.77;13.20;;;;;;;;;;5051531;28;20176;-80
2023/05/11 07:27:57;;;;;;;15.13;12.60;;;;;;;;;;5034315;28;20181;-83
2023/05/11 07:30:24;;;;;;;14.53;13.03;;;;;;;;;;5051155;28;20187;-83
2023/05/11 07:32:50;;;;;;;15.13;12.70;;;;;;;;;;5018060;28;20184;-83
2023/05/11 07:35:16;;;;;;;18.57;14.67;;;;;;;;;;5018041;28;20195;-83
2023/05/11 07:37:42;;;;;;;18.93;15.83;;;;;;;;;;5016562;28;20200;-83
2023/05/11 07:40:08;;;;;;;21.03;16.80;;;;;;;;;;5018203;28;20184;-84
2023/05/11 07:42:34;;;;;;;20.60;15.63;;;;;;;;;;5017943;28;20185;-84
2023/05/11 07:45:00;;;;;;;21.27;15.87;;;;;;;;;;5033997;28;20346;-85
2023/05/11 07:47:26;;;;;;;19.17;16.13;;;;;;;;;;5016901;28;20271;-79
2023/05/11 07:49:52;;;;;;;20.27;15.93;;;;;;;;;;5017730;28;20283;-80
2023/05/11 07:52:18;;;;;;;22.13;17.93;;;;;;;;;;5017414;28;20310;-80
2023/05/11 07:54:44;;;;;;;22.73;18.90;;;;;;;;;;5033713;28;20250;-80
2023/05/11 07:57:12;;;;;;;24.80;19.20;;;;;;;;;;5033296;28;20181;-79
2023/05/11 07:59:38;;;;;;;23.63;18.83;;;;;;;;;;5016306;28;20233;-79
2023/05/11 08:02:07;;;;;;;22.80;19.20;;;;;;;;;;5033082;28;20203;-80
2023/05/11 08:04:33;;;;;;;22.67;19.73;;;;;;;;;;5031619;28;20185;-79
2023/05/11 08:06:59;;;;;;;21.10;18.53;;;;;;;;;;5024116;28;20209;-79
2023/05/11 08:09:25;;;;;;;22.50;18.93;;;;;;;;;;5033729;28;20265;-79
2023/05/11 08:11:52;;;;;;;21.10;18.37;;;;;;;;;;5034279;28;20184;-79
2023/05/11 08:14:20;;;;;;;19.43;17.43;;;;;;;;;;5033424;28;20199;-79
2023/05/11 08:16:46;;;;;;;19.00;16.80;;;;;;;;;;5017329;28;20240;-85
2023/05/11 08:19:12;;;;;;;20.30;18.03;;;;;;;;;;5034714;28;20204;-87
2023/05/11 08:21:38;;;;;;;19.67;16.27;;;;;;;;;;5017173;28;20181;-79
2023/05/11 08:24:04;;;;;;;19.57;16.80;;;;;;;;;;5017119;28;20180;-79
2023/05/11 08:26:31;;;;;;;20.13;17.67;;;;;;;;;;5017150;28;20345;-80
2023/05/11 08:28:57;;;;;;;20.23;17.13;;;;;;;;;;5050105;28;20195;-79
2023/05/11 08:31:23;;;;;;;19.07;17.00;;;;;;;;;;5034413;28;20177;-79
2023/05/11 08:33:50;;;;;;;18.57;16.53;;;;;;;;;;5032937;28;20180;-85
2023/05/11 08:36:16;;;;;;;19.97;17.07;;;;;;;;;;5032561;28;20208;-86
2023/05/11 08:38:42;;;;;;;22.00;19.70;;;;;;;;;;5033614;28;20212;-85
2023/05/11 08:41:11;;;;;;;24.20;20.43;;;;;;;;;;5012904;28;20185;-78
2023/05/11 08:43:38;;;;;;;27.47;24.57;;;;;;;;;;5022152;28;20196;-79
2023/05/11 08:46:08;;;;;;;30.43;27.13;;;;;;;;;;5049958;28;20173;-79
2023/05/11 08:48:34;;;;;;;30.77;27.47;;;;;;;;;;5033828;28;20177;-80
2023/05/11 08:51:02;;;;;;;34.37;30.67;;;;;;;;;;5050162;28;20181;-85
2023/05/11 08:53:28;;;;;;;36.13;32.23;;;;;;;;;;5049742;28;20246;-85
2023/05/11 08:55:57;;;;;;;38.60;34.40;;;;;;;;;;5033326;28;20181;-87
2023/05/11 08:58:23;;;;;;;38.07;34.10;;;;;;;;;;5049356;28;20216;-85
2023/05/11 09:00:50;;;;;;;35.67;31.80;;;;;;;;;;5017196;28;20188;-79
2023/05/11 09:03:18;;;;;;;36.63;32.70;;;;;;;;;;5015770;28;20272;-79
2023/05/11 09:05:45;;;;;;;38.67;33.37;;;;;;;;;;5031383;28;20275;-80
2023/05/11 09:08:12;;;;;;;39.33;34.23;;;;;;;;;;5030829;28;20193;-83
2023/05/11 09:10:41;;;;;;;53.93;42.87;;;;;;;;;;5016981;28;20266;-85
2023/05/11 09:13:07;;;;;;;36.67;31.40;;;;;;;;;;5032902;28;20215;-85
2023/05/11 09:15:33;;;;;;;35.90;31.00;;;;;;;;;;5032545;28;20292;-82
2023/05/11 09:17:59;;;;;;;32.83;29.30;;;;;;;;;;5016141;28;20255;-83
2023/05/11 09:20:30;;;;;;;32.17;28.67;;;;;;;;;;5016432;28;20176;-82
2023/05/11 09:22:57;;;;;;;32.47;28.20;;;;;;;;;;5016532;28;20208;-83
2023/05/11 09:25:23;;;;;;;31.30;27.90;;;;;;;;;;5033868;28;20175;-82
2023/05/11 09:27:49;;;;;;;31.97;28.67;;;;;;;;;;5033040;28;20189;-82
2023/05/11 09:30:16;;;;;;;32.43;29.03;;;;;;;;;;5032069;22;20232;-82
2023/05/11 09:32:47;;;;;;;32.60;28.93;;;;;;;;;;5016058;28;20234;-81
2023/05/11 09:35:20;;;;;;;35.73;30.50;;;;;;;;;;5015935;28;20189;-80
2023/05/11 09:37:56;;;;;;;36.17;31.10;;;;;;;;;;5014909;28;20181;-79
2023/05/11 09:40:22;;;;;;;36.40;32.13;;;;;;;;;;5032025;28;20215;-79
2023/05/11 09:42:48;;;;;;;37.67;32.20;;;;;;;;;;5014957;28;20196;-80
2023/05/11 09:45:34;;;;;;;35.60;30.03;;;;;;;;;;5014440;28;20192;-81
2023/05/11 09:48:01;;;;;;;38.30;31.83;;;;;;;;;;5033261;28;20204;-79
2023/05/11 09:50:31;;;;;;;34.37;30.67;;;;;;;;;;5014959;28;20189;-80
2023/05/11 09:52:57;;;;;;;34.80;31.10;;;;;;;;;;5033166;28;20173;-81
2023/05/11 09:55:24;;;;;;;34.43;30.47;;;;;;;;;;5014600;28;20185;-81
2023/05/11 09:57:54;;;;;;;31.87;28.47;;;;;;;;;;5048344;28;20279;-80
2023/05/11 10:00:20;;;;;;;33.03;29.50;;;;;;;;;;5013329;28;20193;-80
2023/05/11 10:02:58;;;;;;;29.13;26.13;;;;;;;;;;5035410;28;20181;-80
2023/05/11 10:05:25;;;;;;;25.03;22.57;;;;;;;;;;5034510;28;20199;-80
2023/05/11 10:08:01;;;;;;;20.93;18.93;;;;;;;;;;5034066;28;20282;-80
2023/05/11 10:10:30;;;;;;;22.47;20.37;;;;;;;;;;5035180;28;20271;-82
2023/05/11 10:12:58;;;;;;;24.73;22.20;;;;;;;;;;5035916;28;20291;-82
2023/05/11 10:15:25;;;;;;;25.93;23.23;;;;;;;;;;5033430;28;20197;-82
2023/05/11 10:17:53;;;;;;;23.60;21.17;;;;;;;;;;5018422;28;20216;-82
2023/05/11 10:20:20;;;;;;;24.53;22.03;;;;;;;;;;5036208;28;20195;-83
2023/05/11 10:22:46;;;;;;;24.67;22.27;;;;;;;;;;5035834;28;20273;-83
2023/05/11 10:25:12;;;;;;;26.13;23.53;;;;;;;;;;5017884;28;20216;-82
2023/05/11 10:27:38;;;;;;;24.80;22.33;;;;;;;;;;5035738;28;20202;-82
2023/05/11 10:30:06;;;;;;;25.33;22.83;;;;;;;;;;5052171;28;20224;-82
2023/05/11 10:32:36;;;;;;;24.90;22.30;;;;;;;;;;5035942;28;20180;-83
2023/05/11 10:35:03;;;;;;;23.63;21.33;;;;;;;;;;5051260;28;20185;-83
2023/05/11 10:37:29;;;;;;;23.17;20.93;;;;;;;;;;5035203;28;20260;-83
2023/05/11 10:39:56;;;;;;;22.97;20.63;;;;;;;;;;5035063;28;20192;-83
2023/05/11 10:42:36;;;;;;;20.60;18.50;;;;;;;;;;5035136;28;20181;-83
2023/05/11 10:45:05;;;;;;;19.57;17.67;;;;;;;;;;5034948;28;20184;-83
2023/05/11 10:47:31;;;;;;;19.60;17.60;;;;;;;;;;5050427;28;20188;-83
2023/05/11 10:50:36;;;;;;;20.47;18.47;;;;;;;;;;5035728;28;20180;-82
2023/05/11 10:53:08;;;;;;;21.27;19.00;;;;;;;;;;4956675;29;20187;-82
2023/05/11 10:55:54;;;;;;;20.10;18.17;;;;;;;;;;4955287;29;20231;-82
2023/05/11 10:58:32;;;;;;;19.67;17.83;;;;;;;;;;4988851;28;20417;-83
2023/05/11 11:01:01;;;;;;;21.00;19.00;;;;;;;;;;5035184;28;20348;-82
2023/05/11 11:03:27;;;;;;;20.23;18.30;;;;;;;;;;5034986;28;20212;-81
2023/05/11 11:05:53;;;;;;;19.20;17.40;;;;;;;;;;5015422;28;20309;-82
2023/05/11 11:08:20;;;;;;;21.00;18.90;;;;;;;;;;5027178;28;20212;-81
2023/05/11 11:10:48;;;;;;;29.10;26.07;;;;;;;;;;5014170;28;20193;-81
2023/05/11 11:13:14;;;;;;;29.87;26.67;;;;;;;;;;5016058;28;20177;-82
2023/05/11 11:15:52;;;;;;;32.40;29.00;;;;;;;;;;5035040;28;20472;-82
2023/05/11 11:18:32;;;;;;;33.72;30.42;;;;;;;;;;5031034;28;20466;-81
2023/05/11 11:20:58;;;;;;;30.93;26.87;;;;;;;;;;5031394;28;20173;-83
2023/05/11 11:23:43;;;;;;;28.30;25.43;;;;;;;;;;5031590;28;20186;-84
2023/05/11 11:26:11;;;;;;;30.50;27.27;;;;;;;;;;5014630;28;20189;-83
2023/05/11 11:29:04;;;;;;;31.07;27.77;;;;;;;;;;5042455;28;20231;-83
2023/05/11 11:31:31;;;;;;;29.17;24.67;;;;;;;;;;5044254;28;20282;-83
2023/05/11 11:33:59;;;;;;;26.50;23.70;;;;;;;;;;5043845;28;20175;-84
2023/05/11 11:36:44;;;;;;;27.97;24.93;;;;;;;;;;5033873;28;20199;-83
2023/05/11 11:39:11;;;;;;;29.73;26.73;;;;;;;;;;5034066;28;20172;-84
2023/05/11 11:41:37;;;;;;;31.57;28.27;;;;;;;;;;5033908;28;20172;-83
2023/05/11 11:44:03;;;;;;;30.70;27.47;;;;;;;;;;5017292;28;20275;-84
2023/05/11 11:46:29;;;;;;;30.20;27.00;;;;;;;;;;5033823;28;20191;-83
2023/05/11 11:49:08;;;;;;;29.33;26.43;;;;;;;;;;5017260;28;20220;-83
2023/05/11 11:51:39;;;;;;;29.17;26.23;;;;;;;;;;5033654;28;20188;-83
2023/05/11 11:54:05;;;;;;;31.17;26.97;;;;;;;;;;5033760;28;20177;-81
2023/05/11 11:56:31;;;;;;;29.17;26.10;;;;;;;;;;5033998;28;20223;-80
2023/05/11 11:59:04;;;;;;;32.10;27.67;;;;;;;;;;5034106;28;20181;-80
2023/05/11 12:01:34;;;;;;;31.97;28.57;;;;;;;;;;5034372;28;20165;-80
2023/05/11 12:04:03;;;;;;;33.43;29.83;;;;;;;;;;5034224;28;20180;-80
2023/05/11 12:06:36;;;;;;;31.87;28.50;;;;;;;;;;5033289;28;20176;-80
2023/05/11 12:09:05;;;;;;;30.93;27.77;;;;;;;;;;5030640;28;20212;-80
2023/05/11 12:11:32;;;;;;;29.67;26.73;;;;;;;;;;5015466;28;20220;-83
2023/05/11 12:13:59;;;;;;;30.33;27.33;;;;;;;;;;5022825;28;20210;-83
2023/05/11 12:16:25;;;;;;;30.03;26.87;;;;;;;;;;5034203;28;20204;-84
2023/05/11 12:18:53;;;;;;;27.27;24.47;;;;;;;;;;5029813;28;20189;-83
2023/05/11 12:21:23;;;;;;;27.00;24.20;;;;;;;;;;5022928;28;20185;-84
2023/05/11 12:24:05;;;;;;;27.27;24.47;;;;;;;;;;5041868;28;20287;-83
2023/05/11 12:26:31;;;;;;;26.83;24.03;;;;;;;;;;5015234;28;20192;-82
2023/05/11 12:29:08;;;;;;;26.87;24.20;;;;;;;;;;5032142;28;20212;-83
2023/05/11 12:31:35;;;;;;;28.27;25.27;;;;;;;;;;5032890;28;20224;-83
2023/05/11 12:34:01;;;;;;;26.90;24.07;;;;;;;;;;5034572;28;20177;-84
2023/05/11 12:36:27;;;;;;;26.90;24.10;;;;;;;;;;5032915;28;20272;-83
2023/05/11 12:38:53;;;;;;;25.97;23.47;;;;;;;;;;5015680;28;20306;-84
2023/05/11 12:41:22;;;;;;;25.77;23.17;;;;;;;;;;5030051;28;20230;-83
2023/05/11 12:43:52;;;;;;;27.00;24.10;;;;;;;;;;5032634;28;20180;-80
2023/05/11 12:46:18;;;;;;;26.37;23.67;;;;;;;;;;5032253;28;20266;-80
2023/05/11 12:48:48;;;;;;;26.53;23.83;;;;;;;;;;5049135;28;20224;-81
2023/05/11 12:51:34;;;;;;;27.87;25.07;;;;;;;;;;5031711;28;20188;-82
2023/05/11 12:54:00;;;;;;;26.63;23.83;;;;;;;;;;5032417;28;20262;-81
2023/05/11 12:56:26;;;;;;;27.03;24.30;;;;;;;;;;5032424;28;20184;-81
2023/05/11 12:58:52;;;;;;;26.97;24.27;;;;;;;;;;5016426;28;20192;-81
2023/05/11 13:01:23;;;;;;;27.33;23.53;;;;;;;;;;5016196;28;20176;-80
2023/05/11 13:03:50;;;;;;;26.03;23.37;;;;;;;;;;5032202;28;20176;-80
2023/05/11 13:06:19;;;;;;;23.03;20.63;;;;;;;;;;5014978;28;20244;-80
2023/05/11 13:08:45;;;;;;;24.00;21.60;;;;;;;;;;5030583;28;20235;-80
2023/05/11 13:11:25;;;;;;;24.43;21.33;;;;;;;;;;5031844;28;20180;-81
2023/05/11 13:13:52;;;;;;;21.67;19.47;;;;;;;;;;5032218;28;20181;-81
2023/05/11 13:16:25;;;;;;;23.27;20.87;;;;;;;;;;5031963;28;20180;-82
2023/05/11 13:18:58;;;;;;;20.83;18.63;;;;;;;;;;5030808;28;20223;-84
2023/05/11 13:21:24;;;;;;;23.40;21.00;;;;;;;;;;5013636;28;20438;-84
2023/05/11 13:23:53;;;;;;;26.80;24.15;;;;;;;;;;5007452;28;20493;-84
2023/05/11 13:26:26;;;;;;;27.92;25.23;;;;;;;;;;5018222;28;20431;-83
2023/05/11 13:28:53;;;;;;;28.90;26.15;;;;;;;;;;5031036;28;20429;-84
2023/05/11 13:31:19;;;;;;;30.13;27.10;;;;;;;;;;5014316;28;20453;-84
2023/05/11 13:33:51;;;;;;;29.20;26.20;;;;;;;;;;5015575;28;20448;-81
2023/05/11 13:36:18;;;;;;;27.35;24.65;;;;;;;;;;5034795;28;20421;-81
2023/05/11 13:38:44;;;;;;;25.45;22.90;;;;;;;;;;5035330;28;20410;-81
2023/05/11 13:41:10;;;;;;;23.93;21.53;;;;;;;;;;5018498;28;20473;-81
2023/05/11 13:43:36;;;;;;;20.87;18.67;;;;;;;;;;5035684;28;20211;-81
2023/05/11 13:46:03;;;;;;;21.45;19.38;;;;;;;;;;5019442;28;20436;-81
2023/05/11 13:48:30;;;;;;;19.27;17.48;;;;;;;;;;5035404;28;20463;-81
2023/05/11 13:50:56;;;;;;;18.10;16.50;;;;;;;;;;5018922;28;20519;-80
2023/05/11 13:53:22;;;;;;;17.30;15.70;;;;;;;;;;5018813;28;20409;-80
2023/05/11 13:55:48;;;;;;;17.20;15.60;;;;;;;;;;5018597;28;20421;-80
2023/05/11 13:58:14;;;;;;;15.00;13.70;;;;;;;;;;5018364;28;20504;-80
2023/05/11 14:00:40;;;;;;;15.82;14.32;;;;;;;;;;5018274;28;20518;-80
2023/05/11 14:03:06;;;;;;;14.20;12.80;;;;;;;;;;5034176;28;20428;-80
2023/05/11 14:05:32;;;;;;;17.17;15.50;;;;;;;;;;5034573;28;20448;-80
2023/05/11 14:07:59;;;;;;;12.50;11.40;;;;;;;;;;5034892;28;20464;-80
2023/05/11 14:10:25;;;;;;;17.00;15.40;;;;;;;;;;5018706;28;20493;-80
2023/05/11 14:12:51;;;;;;;14.37;13.00;;;;;;;;;;5035726;28;20184;-80
2023/05/11 14:15:17;;;;;;;13.48;12.27;;;;;;;;;;5018442;28;20484;-80
2023/05/11 14:17:43;;;;;;;13.30;12.00;;;;;;;;;;5035714;28;20165;-81
2023/05/11 14:20:10;;;;;;;11.40;10.20;;;;;;;;;;5034907;28;20428;-80